createdAt,value
2023-05-13T00:01:44.266Z,45.54
2023-05-13T00:04:11.220Z,45.58
2023-05-13T00:06:38.414Z,45.75
2023-05-13T00:09:05.417Z,45.85
2023-05-13T00:11:32.339Z,46.00
2023-05-13T00:13:59.229Z,46.21
2023-05-13T00:16:27.765Z,46.19
2023-05-13T00:18:55.722Z,46.48
2023-05-13T00:21:23.469Z,46.66
2023-05-13T00:23:50.432Z,46.51
2023-05-13T00:26:17.367Z,46.69
2023-05-13T00:28:47.342Z,46.75
2023-05-13T00:31:14.257Z,46.87
2023-05-13T00:33:41.162Z,47.04
2023-05-13T00:36:10.147Z,47.12
2023-05-13T00:38:38.009Z,47.32
2023-05-13T00:41:05.896Z,47.31
2023-05-13T00:43:32.779Z,47.31
2023-05-13T00:46:00.245Z,47.40
2023-05-13T00:48:27.461Z,47.34
2023-05-13T00:50:54.383Z,47.40
2023-05-13T00:53:21.627Z,47.53
2023-05-13T00:55:48.584Z,47.94
2023-05-13T00:58:17.306Z,47.91
2023-05-13T01:01:34.400Z,48.05
2023-05-13T01:04:46.424Z,48.15
2023-05-13T01:07:24.416Z,48.35
2023-05-13T01:10:03.358Z,48.24
2023-05-13T01:12:34.861Z,48.35
2023-05-13T01:15:12.545Z,48.64
2023-05-13T01:18:05.564Z,48.96
2023-05-13T01:20:34.634Z,48.84
2023-05-13T01:23:03.924Z,48.66
2023-05-13T01:25:31.168Z,48.92
2023-05-13T01:27:58.402Z,48.60
2023-05-13T01:30:26.699Z,48.76
2023-05-13T01:32:54.087Z,48.77
2023-05-13T01:35:21.675Z,48.50
2023-05-13T01:37:50.213Z,48.41
2023-05-13T01:40:31.091Z,48.94
2023-05-13T01:43:02.681Z,48.67
2023-05-13T01:45:30.439Z,48.90
2023-05-13T01:47:58.059Z,49.07
2023-05-13T01:50:29.280Z,48.87
2023-05-13T01:52:57.384Z,48.96
2023-05-13T01:55:24.502Z,48.95
2023-05-13T01:57:51.856Z,48.78
2023-05-13T02:00:18.979Z,48.88
2023-05-13T02:02:49.181Z,49.05
2023-05-13T02:05:16.748Z,49.07
2023-05-13T02:07:44.417Z,49.09
2023-05-13T02:10:11.788Z,49.16
2023-05-13T02:12:38.704Z,49.40
2023-05-13T02:15:06.418Z,49.64
2023-05-13T02:17:33.366Z,49.75
2023-05-13T02:20:00.453Z,49.69
2023-05-13T02:22:27.396Z,49.63
2023-05-13T02:24:54.324Z,49.79
2023-05-13T02:27:21.237Z,49.66
2023-05-13T02:29:48.151Z,49.83
2023-05-13T02:32:15.136Z,49.63
2023-05-13T02:34:42.053Z,49.70
2023-05-13T02:37:09.118Z,49.62
2023-05-13T02:39:43.606Z,49.75
2023-05-13T02:42:11.269Z,49.82
2023-05-13T02:44:38.169Z,49.79
2023-05-13T02:47:05.671Z,49.79
2023-05-13T02:49:32.581Z,50.01
2023-05-13T02:51:59.585Z,49.78
2023-05-13T02:54:33.058Z,50.04
2023-05-13T02:56:59.970Z,50.11
2023-05-13T02:59:27.080Z,49.89
2023-05-13T03:01:53.975Z,50.20
2023-05-13T03:04:20.881Z,50.30
2023-05-13T03:06:48.265Z,50.04
2023-05-13T03:09:15.434Z,50.11
2023-05-13T03:11:42.332Z,50.38
2023-05-13T03:14:09.211Z,50.47
2023-05-13T03:16:38.170Z,50.35
2023-05-13T03:19:05.209Z,50.57
2023-05-13T03:21:32.135Z,50.58
2023-05-13T03:23:59.117Z,50.57
2023-05-13T03:26:26.784Z,50.67
2023-05-13T03:28:53.676Z,50.73
2023-05-13T03:31:21.587Z,50.85
2023-05-13T03:33:48.956Z,50.91
2023-05-13T03:36:15.914Z,51.16
2023-05-13T03:38:42.951Z,51.00
2023-05-13T03:41:09.950Z,51.25
2023-05-13T03:43:36.926Z,51.24
2023-05-13T03:46:08.198Z,51.03
2023-05-13T03:48:35.473Z,51.41
2023-05-13T03:51:03.649Z,51.27
2023-05-13T03:53:30.607Z,51.19
2023-05-13T03:55:57.974Z,51.37
2023-05-13T03:58:24.878Z,51.49
2023-05-13T04:00:51.797Z,51.61
2023-05-13T04:03:19.249Z,51.72
2023-05-13T04:05:47.374Z,52.05
2023-05-13T04:08:14.533Z,52.42
2023-05-13T04:10:41.437Z,52.04
2023-05-13T04:13:08.358Z,51.68
2023-05-13T04:15:35.328Z,51.41
2023-05-13T04:18:02.329Z,50.67
2023-05-13T04:20:29.270Z,50.23
2023-05-13T04:22:56.480Z,49.91
2023-05-13T04:25:23.427Z,49.30
2023-05-13T04:27:50.451Z,49.20
2023-05-13T04:30:25.162Z,48.39
2023-05-13T04:32:52.120Z,48.08
2023-05-13T04:35:20.129Z,47.89
2023-05-13T04:37:52.027Z,47.63
2023-05-13T04:40:20.183Z,47.66
2023-05-13T04:42:54.452Z,47.52
2023-05-13T04:45:25.360Z,47.54
2023-05-13T04:47:52.421Z,47.31
2023-05-13T04:50:19.616Z,47.20
2023-05-13T04:52:47.638Z,47.09
2023-05-13T04:55:16.611Z,47.10
2023-05-13T04:57:43.574Z,47.44
2023-05-13T05:00:12.136Z,47.61
2023-05-13T05:02:40.860Z,47.72
2023-05-13T05:05:08.151Z,47.76
2023-05-13T05:07:35.068Z,47.67
2023-05-13T05:10:02.055Z,47.62
2023-05-13T05:12:32.336Z,47.48
2023-05-13T05:14:59.253Z,46.79
2023-05-13T05:17:29.212Z,47.05
2023-05-13T05:19:56.351Z,47.01
2023-05-13T05:22:24.315Z,47.14
2023-05-13T05:24:51.247Z,47.02
2023-05-13T05:27:19.306Z,46.66
2023-05-13T05:29:46.218Z,46.46
2023-05-13T05:32:13.163Z,46.35
2023-05-13T05:34:40.130Z,46.03
2023-05-13T05:37:07.149Z,45.76
2023-05-13T05:39:37.074Z,45.74
2023-05-13T05:42:04.198Z,45.81
2023-05-13T05:44:31.127Z,45.96
2023-05-13T05:46:57.992Z,45.72
2023-05-13T05:49:25.199Z,45.41
2023-05-13T05:51:52.359Z,45.20
2023-05-13T05:54:20.745Z,45.13
2023-05-13T05:56:48.288Z,45.20
2023-05-13T05:59:15.341Z,44.83
2023-05-13T06:01:42.263Z,45.10
2023-05-13T06:04:09.460Z,44.72
2023-05-13T06:06:36.733Z,45.17
2023-05-13T06:09:05.800Z,45.05
2023-05-13T06:11:33.829Z,45.10
2023-05-13T06:14:00.809Z,45.19
2023-05-13T06:16:27.833Z,45.02
2023-05-13T06:18:54.775Z,44.78
2023-05-13T06:21:21.765Z,44.59
2023-05-13T06:23:49.565Z,44.32
2023-05-13T06:26:16.520Z,44.58
2023-05-13T06:28:43.371Z,44.16
2023-05-13T06:31:10.303Z,43.74
2023-05-13T06:33:37.722Z,43.91
2023-05-13T06:36:05.223Z,43.46
2023-05-13T06:38:34.509Z,43.35
2023-05-13T06:41:01.815Z,43.43
2023-05-13T06:43:34.742Z,43.26
2023-05-13T06:46:12.940Z,42.34
2023-05-13T06:48:39.905Z,43.17
2023-05-13T06:51:07.157Z,42.47
2023-05-13T06:53:34.038Z,42.62
2023-05-13T06:56:00.982Z,42.28
2023-05-13T06:58:27.877Z,42.33
2023-05-13T07:00:54.819Z,41.72
2023-05-13T07:03:21.800Z,41.68
2023-05-13T07:05:48.739Z,41.17
2023-05-13T07:08:17.934Z,40.38
2023-05-13T07:10:45.128Z,40.36
2023-05-13T07:13:12.381Z,39.47
2023-05-13T07:15:39.384Z,39.29
2023-05-13T07:18:06.383Z,38.54
2023-05-13T07:20:33.405Z,38.52
2023-05-13T07:23:00.315Z,37.63
2023-05-13T07:25:27.231Z,37.48
2023-05-13T07:27:54.201Z,36.35
2023-05-13T07:30:21.473Z,36.34
2023-05-13T07:32:48.673Z,36.49
2023-05-13T07:35:17.094Z,35.65
2023-05-13T07:37:47.518Z,35.53
2023-05-13T07:40:14.553Z,34.54
2023-05-13T07:42:41.496Z,34.07
2023-05-13T07:45:09.163Z,34.35
2023-05-13T07:47:36.224Z,34.09
2023-05-13T07:50:03.604Z,34.62
2023-05-13T07:52:30.554Z,34.07
2023-05-13T07:54:57.481Z,33.54
2023-05-13T07:57:24.438Z,33.72
2023-05-13T07:59:52.709Z,33.43
2023-05-13T08:02:19.974Z,33.16
2023-05-13T08:04:47.269Z,32.12
2023-05-13T08:07:14.245Z,31.87
2023-05-13T08:09:41.150Z,31.54
2023-05-13T08:12:08.271Z,31.94
2023-05-13T08:14:36.104Z,31.23
2023-05-13T08:17:06.318Z,31.58
2023-05-13T08:19:33.241Z,31.42
2023-05-13T08:22:00.184Z,31.57
2023-05-13T08:24:27.099Z,31.79
2023-05-13T08:26:54.010Z,30.83
2023-05-13T08:29:20.896Z,31.00
2023-05-13T08:31:47.849Z,31.01
2023-05-13T08:34:14.972Z,29.36
2023-05-13T08:36:41.842Z,29.77
2023-05-13T08:39:08.807Z,29.73
2023-05-13T08:41:35.828Z,29.64
2023-05-13T08:44:06.808Z,29.83
2023-05-13T08:46:35.053Z,28.92
2023-05-13T08:49:02.449Z,28.83
2023-05-13T08:51:29.453Z,29.26
2023-05-13T08:53:56.690Z,28.74
2023-05-13T08:56:25.640Z,27.77
2023-05-13T08:58:52.524Z,29.00
2023-05-13T09:01:19.554Z,29.25
2023-05-13T09:04:00.005Z,29.54
2023-05-13T09:06:26.938Z,28.44
2023-05-13T09:08:54.877Z,27.87
2023-05-13T09:11:22.083Z,27.48
2023-05-13T09:14:11.748Z,27.87
2023-05-13T09:16:38.953Z,27.79
2023-05-13T09:19:08.211Z,28.29
2023-05-13T09:21:36.057Z,28.25
2023-05-13T09:24:18.062Z,27.23
2023-05-13T09:26:46.089Z,27.63
2023-05-13T09:29:22.685Z,26.55
2023-05-13T09:31:54.978Z,27.25
2023-05-13T09:34:34.254Z,27.71
2023-05-13T09:37:06.886Z,26.70
2023-05-13T09:39:41.661Z,26.24
2023-05-13T09:42:16.862Z,23.89
2023-05-13T09:44:45.913Z,23.78
2023-05-13T09:47:17.038Z,24.71
2023-05-13T09:49:47.041Z,24.02
2023-05-13T09:52:17.094Z,22.85
2023-05-13T09:54:44.839Z,22.13
2023-05-13T09:57:13.836Z,22.31
2023-05-13T09:59:41.546Z,22.42
2023-05-13T10:02:08.886Z,22.02
2023-05-13T10:04:35.847Z,22.24
2023-05-13T10:07:05.092Z,21.80
2023-05-13T10:09:36.752Z,22.29
2023-05-13T10:12:07.585Z,22.73
2023-05-13T10:14:37.426Z,23.02
2023-05-13T10:17:05.456Z,22.64
2023-05-13T10:19:32.951Z,22.16
2023-05-13T10:22:00.396Z,21.45
2023-05-13T10:24:28.977Z,21.48
2023-05-13T10:26:58.050Z,21.88
2023-05-13T10:29:26.580Z,21.94
2023-05-13T10:31:54.425Z,21.82
2023-05-13T10:34:22.949Z,22.50
2023-05-13T10:37:14.083Z,22.29
2023-05-13T10:40:47.607Z,22.58
2023-05-13T10:43:38.192Z,21.86
2023-05-13T10:46:12.445Z,21.95
2023-05-13T10:48:43.004Z,21.94
2023-05-13T10:51:14.906Z,21.65
2023-05-13T10:53:52.899Z,21.88
2023-05-13T10:56:26.065Z,21.56
2023-05-13T10:59:02.443Z,22.14
2023-05-13T11:01:31.191Z,21.11
2023-05-13T11:04:01.352Z,20.90
2023-05-13T11:06:38.529Z,21.52
2023-05-13T11:09:28.519Z,21.33
2023-05-13T11:11:57.908Z,21.08
2023-05-13T11:14:31.031Z,21.28
2023-05-13T11:17:01.076Z,22.06
2023-05-13T11:19:34.646Z,21.99
2023-05-13T11:22:13.597Z,21.68
2023-05-13T11:24:41.264Z,21.12
2023-05-13T11:27:20.889Z,20.98
2023-05-13T11:29:57.957Z,20.64
2023-05-13T11:32:58.081Z,21.56
2023-05-13T11:35:27.460Z,21.94
2023-05-13T11:37:58.238Z,22.13
2023-05-13T11:40:35.058Z,21.92
2023-05-13T11:43:02.388Z,21.51
2023-05-13T11:45:30.428Z,21.37
2023-05-13T11:47:57.895Z,21.00
2023-05-13T11:50:30.135Z,21.29
2023-05-13T11:53:00.123Z,21.15
2023-05-13T11:55:32.705Z,21.91
2023-05-13T11:58:00.287Z,22.03
2023-05-13T12:00:32.213Z,21.67
2023-05-13T12:03:00.644Z,21.63
2023-05-13T12:05:28.140Z,21.66
2023-05-13T12:07:59.280Z,21.86
2023-05-13T12:10:26.743Z,22.07
2023-05-13T12:12:54.284Z,21.72
2023-05-13T12:15:22.241Z,21.32
2023-05-13T12:17:49.855Z,21.86
2023-05-13T12:20:22.093Z,22.20
2023-05-13T12:22:50.979Z,22.25
2023-05-13T12:25:37.498Z,22.31
2023-05-13T12:28:24.655Z,21.52
2023-05-13T12:31:03.342Z,22.33
2023-05-13T12:33:34.238Z,22.17
2023-05-13T12:36:32.107Z,21.95
2023-05-13T12:39:02.513Z,21.74
2023-05-13T12:41:32.633Z,21.80
2023-05-13T12:44:09.030Z,21.43
2023-05-13T12:46:36.716Z,22.51
2023-05-13T12:49:05.335Z,22.97
2023-05-13T12:51:35.493Z,21.67
2023-05-13T12:54:02.445Z,21.92
2023-05-13T12:56:29.331Z,21.55
2023-05-13T12:58:56.526Z,21.33
2023-05-13T13:01:23.497Z,22.10
2023-05-13T13:03:50.804Z,21.85
2023-05-13T13:06:18.820Z,21.53
2023-05-13T13:08:45.814Z,21.58
2023-05-13T13:11:18.575Z,21.78
2023-05-13T13:13:46.668Z,21.83
2023-05-13T13:16:14.134Z,21.90
2023-05-13T13:18:42.234Z,22.72
2023-05-13T13:21:10.879Z,22.17
2023-05-13T13:23:37.867Z,22.38
2023-05-13T13:26:04.854Z,21.92
2023-05-13T13:28:31.987Z,22.61
2023-05-13T13:30:59.934Z,21.81
2023-05-13T13:33:26.970Z,21.48
2023-05-13T13:35:55.120Z,21.43
2023-05-13T13:38:21.998Z,21.21
2023-05-13T13:40:48.880Z,21.07
2023-05-13T13:43:15.867Z,21.00
2023-05-13T13:45:42.830Z,20.68
2023-05-13T13:48:09.788Z,20.60
2023-05-13T13:50:36.790Z,20.97
2023-05-13T13:53:03.710Z,21.31
2023-05-13T13:55:30.878Z,20.88
2023-05-13T13:57:57.745Z,20.73
2023-05-13T14:00:24.820Z,20.73
2023-05-13T14:02:51.916Z,20.84
2023-05-13T14:05:19.493Z,20.74
2023-05-13T14:07:48.284Z,20.70
2023-05-13T14:10:15.351Z,19.99
2023-05-13T14:12:42.336Z,19.71
2023-05-13T14:15:09.511Z,20.17
2023-05-13T14:17:36.465Z,19.36
2023-05-13T14:20:03.977Z,19.09
2023-05-13T14:22:30.879Z,19.37
2023-05-13T14:24:58.989Z,19.42
2023-05-13T14:27:25.923Z,19.31
2023-05-13T14:29:52.850Z,19.19
2023-05-13T14:32:19.735Z,19.16
2023-05-13T14:34:46.624Z,18.95
2023-05-13T14:37:13.520Z,19.15
2023-05-13T14:39:40.598Z,19.69
2023-05-13T14:42:07.522Z,19.83
2023-05-13T14:44:34.433Z,20.14
2023-05-13T14:47:01.415Z,19.44
2023-05-13T14:49:28.450Z,20.29
2023-05-13T14:51:55.555Z,19.63
2023-05-13T14:54:22.459Z,19.51
2023-05-13T14:56:50.457Z,19.74
2023-05-13T14:59:17.355Z,19.67
2023-05-13T15:01:44.744Z,19.19
2023-05-13T15:04:11.658Z,19.25
2023-05-13T15:06:39.008Z,19.13
2023-05-13T15:09:07.045Z,19.30
2023-05-13T15:11:33.954Z,19.56
2023-05-13T15:14:02.165Z,19.38
2023-05-13T15:16:29.079Z,19.47
2023-05-13T15:18:56.227Z,21.79
2023-05-13T15:21:23.242Z,23.00
2023-05-13T15:23:50.217Z,23.25
2023-05-13T15:26:17.125Z,23.87
2023-05-13T15:28:44.015Z,24.02
2023-05-13T15:31:10.968Z,24.35
2023-05-13T15:33:37.917Z,24.94
2023-05-13T15:36:06.149Z,25.72
2023-05-13T15:38:33.105Z,25.58
2023-05-13T15:41:00.361Z,26.45
2023-05-13T15:43:28.311Z,26.97
2023-05-13T15:45:55.363Z,27.39
2023-05-13T15:48:22.456Z,27.69
2023-05-13T15:50:49.346Z,27.40
2023-05-13T15:53:16.245Z,27.50
2023-05-13T15:55:43.132Z,28.28
2023-05-13T15:58:10.013Z,27.69
2023-05-13T16:00:36.934Z,27.22
2023-05-13T16:03:04.013Z,27.73
2023-05-13T16:05:31.019Z,27.06
2023-05-13T16:07:57.985Z,28.02
2023-05-13T16:10:25.078Z,27.82
2023-05-13T16:12:52.278Z,27.97
2023-05-13T16:15:19.191Z,28.02
2023-05-13T16:17:46.169Z,28.36
2023-05-13T16:20:13.519Z,27.89
2023-05-13T16:22:40.676Z,27.78
2023-05-13T16:25:09.987Z,27.54
2023-05-13T16:27:39.209Z,28.19
2023-05-13T16:30:07.446Z,28.30
2023-05-13T16:32:35.039Z,27.51
2023-05-13T16:35:03.241Z,27.54
2023-05-13T16:37:34.471Z,28.03
2023-05-13T16:40:01.389Z,27.74
2023-05-13T16:42:28.292Z,28.28
2023-05-13T16:44:55.253Z,27.25
2023-05-13T16:47:22.214Z,27.02
2023-05-13T16:49:50.203Z,27.03
2023-05-13T16:52:17.183Z,26.44
2023-05-13T16:54:44.673Z,26.47
2023-05-13T16:57:11.713Z,26.54
2023-05-13T16:59:38.590Z,26.39
2023-05-13T17:02:06.153Z,26.64
2023-05-13T17:04:33.996Z,26.13
2023-05-13T17:07:01.372Z,26.69
2023-05-13T17:09:30.904Z,26.79
2023-05-13T17:11:57.956Z,26.02
2023-05-13T17:14:25.318Z,25.82
2023-05-13T17:16:52.460Z,26.34
2023-05-13T17:19:19.709Z,25.65
2023-05-13T17:21:47.098Z,25.70
2023-05-13T17:24:13.977Z,25.78
2023-05-13T17:26:40.879Z,26.28
2023-05-13T17:29:07.901Z,26.36
2023-05-13T17:31:34.826Z,27.02
2023-05-13T17:34:01.743Z,26.71
2023-05-13T17:36:28.678Z,27.59
2023-05-13T17:38:55.611Z,27.24
2023-05-13T17:41:22.568Z,28.31
2023-05-13T17:43:49.466Z,28.40
2023-05-13T17:46:16.408Z,28.77
2023-05-13T17:48:43.500Z,28.82
2023-05-13T17:51:11.153Z,28.96
2023-05-13T17:53:38.070Z,28.51
2023-05-13T17:56:05.682Z,28.61
2023-05-13T17:58:32.635Z,28.64
2023-05-13T18:00:59.515Z,29.34
2023-05-13T18:03:26.750Z,29.24
2023-05-13T18:05:53.737Z,29.66
2023-05-13T18:08:20.821Z,30.07
2023-05-13T18:10:48.533Z,29.66
2023-05-13T18:13:15.725Z,29.94
2023-05-13T18:15:42.635Z,30.52
2023-05-13T18:18:09.919Z,30.50
2023-05-13T18:20:37.574Z,30.59
2023-05-13T18:23:04.493Z,31.17
2023-05-13T18:25:32.714Z,30.98
2023-05-13T18:28:00.531Z,31.09
2023-05-13T18:30:28.243Z,31.26
2023-05-13T18:32:56.289Z,31.64
2023-05-13T18:35:24.305Z,31.53
2023-05-13T18:37:51.261Z,31.65
2023-05-13T18:40:18.731Z,31.38
2023-05-13T18:42:45.622Z,31.60
2023-05-13T18:45:12.530Z,32.30
2023-05-13T18:47:39.416Z,32.48
2023-05-13T18:50:06.741Z,32.44
2023-05-13T18:52:33.860Z,32.38
2023-05-13T18:55:05.051Z,32.71
2023-05-13T18:57:31.946Z,32.80
2023-05-13T18:59:58.890Z,33.21
2023-05-13T19:02:26.235Z,33.50
2023-05-13T19:04:53.426Z,33.56
2023-05-13T19:07:20.357Z,33.56
2023-05-13T19:09:48.370Z,33.61
2023-05-13T19:12:15.276Z,34.11
2023-05-13T19:14:42.433Z,34.10
2023-05-13T19:17:09.387Z,34.33
2023-05-13T19:19:36.523Z,34.61
2023-05-13T19:22:03.633Z,34.88
2023-05-13T19:24:30.519Z,34.91
2023-05-13T19:26:57.401Z,34.96
2023-05-13T19:29:24.279Z,35.05
2023-05-13T19:31:51.165Z,35.11
2023-05-13T19:34:18.060Z,35.10
2023-05-13T19:36:46.366Z,35.07
2023-05-13T19:39:13.248Z,35.37
2023-05-13T19:41:40.146Z,35.19
2023-05-13T19:44:07.290Z,35.35
2023-05-13T19:46:34.236Z,35.51
2023-05-13T19:49:01.167Z,35.50
2023-05-13T19:51:28.054Z,35.52
2023-05-13T19:53:54.969Z,35.23
2023-05-13T19:56:21.874Z,35.85
2023-05-13T19:58:49.010Z,35.91
2023-05-13T20:01:15.944Z,35.96
2023-05-13T20:03:43.006Z,36.06
2023-05-13T20:06:10.075Z,36.47
2023-05-13T20:08:38.269Z,36.30
2023-05-13T20:11:05.137Z,36.72
2023-05-13T20:13:32.487Z,36.54
2023-05-13T20:15:59.351Z,36.84
2023-05-13T20:18:26.266Z,36.86
2023-05-13T20:20:53.670Z,37.27
2023-05-13T20:23:21.035Z,37.36
2023-05-13T20:25:47.909Z,37.25
2023-05-13T20:28:14.849Z,37.55
2023-05-13T20:30:44.878Z,37.51
2023-05-13T20:33:12.871Z,38.02
2023-05-13T20:35:39.711Z,37.96
2023-05-13T20:38:06.920Z,37.99
2023-05-13T20:40:33.841Z,38.09
2023-05-13T20:43:01.573Z,38.13
2023-05-13T20:45:28.697Z,38.16
2023-05-13T20:47:59.362Z,38.25
2023-05-13T20:50:27.655Z,38.40
2023-05-13T20:52:55.459Z,38.76
2023-05-13T20:55:22.589Z,38.53
2023-05-13T20:57:51.052Z,38.92
2023-05-13T21:00:18.223Z,39.11
2023-05-13T21:02:45.712Z,39.22
2023-05-13T21:05:12.835Z,39.46
2023-05-13T21:07:39.815Z,39.43
2023-05-13T21:10:07.925Z,39.72
2023-05-13T21:12:34.772Z,39.89
2023-05-13T21:15:01.636Z,40.02
2023-05-13T21:17:28.531Z,40.34
2023-05-13T21:19:55.431Z,40.20
2023-05-13T21:22:22.321Z,40.46
2023-05-13T21:24:50.142Z,40.89
2023-05-13T21:27:16.984Z,40.84
2023-05-13T21:29:43.870Z,40.71
2023-05-13T21:32:11.933Z,41.13
2023-05-13T21:34:38.902Z,41.72
2023-05-13T21:37:05.934Z,41.25
2023-05-13T21:39:32.842Z,41.38
2023-05-13T21:42:00.662Z,42.06
2023-05-13T21:44:28.921Z,41.70
2023-05-13T21:46:55.874Z,41.78
2023-05-13T21:49:22.872Z,42.30
2023-05-13T21:51:49.852Z,42.11
2023-05-13T21:54:18.167Z,42.80
2023-05-13T21:56:45.207Z,42.40
2023-05-13T21:59:12.115Z,42.90
2023-05-13T22:01:39.032Z,43.14
2023-05-13T22:04:05.960Z,42.73
2023-05-13T22:06:33.517Z,43.29
2023-05-13T22:09:01.277Z,43.62
2023-05-13T22:11:28.233Z,43.26
2023-05-13T22:13:55.147Z,43.37
2023-05-13T22:16:22.303Z,43.61
2023-05-13T22:18:50.877Z,43.99
2023-05-13T22:21:17.835Z,43.85
2023-05-13T22:23:44.716Z,44.25
2023-05-13T22:26:12.030Z,44.35
2023-05-13T22:28:39.032Z,44.34
2023-05-13T22:31:05.920Z,44.83
2023-05-13T22:33:32.802Z,44.75
2023-05-13T22:35:59.689Z,44.90
2023-05-13T22:38:26.596Z,44.64
2023-05-13T22:40:53.473Z,44.93
2023-05-13T22:43:20.393Z,45.37
2023-05-13T22:45:47.291Z,45.59
2023-05-13T22:48:15.076Z,45.59
2023-05-13T22:50:41.964Z,45.38
2023-05-13T22:53:08.848Z,45.92
2023-05-13T22:55:35.750Z,45.90
2023-05-13T22:58:02.713Z,46.26
2023-05-13T23:00:29.607Z,45.90
2023-05-13T23:02:57.460Z,46.18
2023-05-13T23:05:24.390Z,46.22
2023-05-13T23:07:51.273Z,46.10
2023-05-13T23:10:18.195Z,46.44
2023-05-13T23:12:45.077Z,46.46
2023-05-13T23:15:14.275Z,46.42
2023-05-13T23:17:41.228Z,46.77
2023-05-13T23:20:08.877Z,46.87
2023-05-13T23:22:35.894Z,46.75
2023-05-13T23:25:03.680Z,46.72
2023-05-13T23:27:31.498Z,47.04
2023-05-13T23:29:59.216Z,47.07
2023-05-13T23:32:26.477Z,47.18
2023-05-13T23:34:53.404Z,47.26
2023-05-13T23:37:21.813Z,47.27
2023-05-13T23:39:48.723Z,47.75
2023-05-13T23:42:16.438Z,47.78
2023-05-13T23:44:43.334Z,47.79
2023-05-13T23:47:11.030Z,47.96
2023-05-13T23:49:38.193Z,48.15
2023-05-13T23:52:05.463Z,48.19
2023-05-13T23:54:32.395Z,48.15
2023-05-13T23:56:59.286Z,48.42
2023-05-13T23:59:26.324Z,48.26
